Time;durP1;ratioP1;P1;durP2;ratioP2;P2;SDS_P1;SDS_P2;PMS_P1;PMS_P2;Temp;Humidity;BMP_temperature;BMP_pressure;BME280_temperature;BME280_humidity;BME280_pressure;Samples;Min_cycle;Max_cycle;Signal;HPM_P1;HPM_P2
2021/12/27 00:00:44;;;;;;;37.57;12.37;;;8.30;99.90;;;;;;5051872;28;20303;-58
2021/12/27 00:03:11;;;;;;;37.67;11.57;;;8.30;99.90;;;;;;5050683;28;20185;-58
2021/12/27 00:05:37;;;;;;;30.30;11.33;;;8.10;99.90;;;;;;5051168;28;20188;-59
2021/12/27 00:08:03;;;;;;;25.90;10.20;;;8.40;99.90;;;;;;5051501;28;20177;-58
2021/12/27 00:10:29;;;;;;;33.87;10.53;;;8.40;99.90;;;;;;5051467;28;20169;-58
2021/12/27 00:12:56;;;;;;;30.70;10.40;;;8.30;99.90;;;;;;5051498;28;20181;-58
2021/12/27 00:15:22;;;;;;;35.47;10.37;;;8.40;99.90;;;;;;5051443;28;20661;-58
2021/12/27 00:17:48;;;;;;;29.33;10.60;;;8.40;99.90;;;;;;5051293;28;20180;-58
2021/12/27 00:20:16;;;;;;;22.43;9.30;;;8.40;99.90;;;;;;5051267;28;20165;-59
2021/12/27 00:22:43;;;;;;;22.37;9.57;;;8.40;99.90;;;;;;5051316;28;20170;-58
2021/12/27 00:25:09;;;;;;;24.20;8.77;;;8.40;99.90;;;;;;5051193;28;20169;-58
2021/12/27 00:27:35;;;;;;;22.87;9.53;;;8.30;99.90;;;;;;5051176;28;20181;-58
2021/12/27 00:30:01;;;;;;;22.07;9.70;;;8.40;99.90;;;;;;5035024;28;20217;-58
2021/12/27 00:32:27;;;;;;;32.37;9.80;;;8.40;99.90;;;;;;5051061;28;20296;-59
2021/12/27 00:34:53;;;;;;;21.50;9.93;;;8.40;99.90;;;;;;5051380;28;20203;-59
2021/12/27 00:37:19;;;;;;;27.60;10.63;;;8.40;99.90;;;;;;5050789;28;20180;-58
2021/12/27 00:39:44;;;;;;;22.40;10.53;;;8.40;99.90;;;;;;5048642;28;20200;-58
2021/12/27 00:42:10;;;;;;;32.10;10.90;;;8.20;99.90;;;;;;5050564;28;20173;-58
2021/12/27 00:44:36;;;;;;;25.73;10.43;;;8.30;99.90;;;;;;5049911;28;20177;-59
2021/12/27 00:47:03;;;;;;;20.60;10.20;;;8.30;99.90;;;;;;5050746;28;20173;-59
2021/12/27 00:49:29;;;;;;;26.70;10.50;;;8.30;99.90;;;;;;5050565;28;20215;-59
2021/12/27 00:51:54;;;;;;;26.87;10.10;;;8.30;99.90;;;;;;5051021;28;20216;-58
2021/12/27 00:54:20;;;;;;;28.20;10.87;;;8.20;99.90;;;;;;5050732;28;20256;-58
2021/12/27 00:56:46;;;;;;;27.70;10.57;;;8.40;99.90;;;;;;5050487;28;20188;-58
2021/12/27 00:59:12;;;;;;;22.70;9.90;;;8.20;99.90;;;;;;5050711;28;20592;-58
2021/12/27 01:01:38;;;;;;;21.10;10.50;;;8.20;99.90;;;;;;5050670;28;20554;-58
2021/12/27 01:04:05;;;;;;;26.37;10.97;;;8.20;99.90;;;;;;5050557;28;20670;-58
2021/12/27 01:06:32;;;;;;;26.37;10.60;;;8.20;99.90;;;;;;5050936;28;20719;-58
2021/12/27 01:08:58;;;;;;;25.90;11.20;;;8.10;99.90;;;;;;5051100;28;20174;-58
2021/12/27 01:12:08;;;;;;;33.00;11.30;;;7.90;99.90;;;;;;5050487;28;20304;-58
2021/12/27 01:14:16;;;;;;;36.50;12.23;;;8.10;99.90;;;;;;5049603;28;20185;-58
2021/12/27 01:16:44;;;;;;;30.00;11.60;;;8.10;99.90;;;;;;5050261;28;20181;-58
2021/12/27 01:19:10;;;;;;;24.37;10.87;;;8.10;99.90;;;;;;5050492;28;20723;-58
2021/12/27 01:21:36;;;;;;;32.20;12.37;;;8.20;99.90;;;;;;5050505;28;20628;-58
2021/12/27 01:24:04;;;;;;;30.87;12.73;;;8.10;99.90;;;;;;5050505;28;20227;-58
2021/12/27 01:26:30;;;;;;;35.23;13.30;;;8.00;99.90;;;;;;5050056;28;20694;-58
2021/12/27 01:28:59;;;;;;;28.47;12.47;;;8.10;99.90;;;;;;5050089;28;20288;-58
2021/12/27 01:31:25;;;;;;;25.53;12.80;;;8.00;99.90;;;;;;5050354;28;20241;-58
2021/12/27 01:33:51;;;;;;;40.07;13.77;;;7.90;99.90;;;;;;5050720;28;20233;-58
2021/12/27 01:36:17;;;;;;;31.37;12.53;;;8.00;99.90;;;;;;5050415;28;20280;-58
2021/12/27 01:38:43;;;;;;;38.90;13.27;;;8.00;99.90;;;;;;5050321;28;20177;-58
2021/12/27 01:41:11;;;;;;;34.93;13.30;;;8.00;99.90;;;;;;5049842;28;20658;-58
2021/12/27 01:43:38;;;;;;;41.97;14.17;;;8.00;99.90;;;;;;5035171;28;20224;-58
2021/12/27 01:46:07;;;;;;;26.17;13.37;;;8.00;99.90;;;;;;5050307;28;20186;-59
2021/12/27 01:48:38;;;;;;;31.80;13.50;;;8.20;99.90;;;;;;5050196;28;20185;-58
2021/12/27 01:51:09;;;;;;;31.90;13.63;;;7.70;99.90;;;;;;5050229;28;20339;-58
2021/12/27 01:53:37;;;;;;;40.20;14.10;;;7.90;99.90;;;;;;5050089;28;20181;-58
2021/12/27 01:56:04;;;;;;;36.40;13.13;;;7.90;99.90;;;;;;5050640;28;20184;-61
2021/12/27 01:58:32;;;;;;;32.87;13.23;;;7.80;99.90;;;;;;5050135;28;20181;-58
2021/12/27 02:01:00;;;;;;;33.07;12.90;;;7.90;99.90;;;;;;5050042;28;20535;-58
2021/12/27 02:03:29;;;;;;;35.43;13.00;;;7.90;99.90;;;;;;5049919;28;20185;-58
2021/12/27 02:05:56;;;;;;;33.70;13.50;;;7.90;99.90;;;;;;5035908;28;20173;-58
2021/12/27 02:08:22;;;;;;;36.70;13.40;;;8.00;99.90;;;;;;5050052;28;20231;-58
2021/12/27 02:10:49;;;;;;;33.07;13.07;;;7.90;99.90;;;;;;5049878;28;20185;-58
2021/12/27 02:13:16;;;;;;;38.50;13.00;;;7.80;99.90;;;;;;5049714;28;20173;-58
2021/12/27 02:15:42;;;;;;;35.13;13.57;;;12.20;99.90;;;;;;5049559;28;20211;-57
2021/12/27 02:18:11;;;;;;;43.33;12.70;;;8.10;99.90;;;;;;5049942;28;20651;-57
2021/12/27 02:20:39;;;;;;;33.70;13.40;;;8.10;99.90;;;;;;5049385;28;20227;-57
2021/12/27 02:23:11;;;;;;;38.43;13.33;;;8.20;99.90;;;;;;5049428;28;20219;-57
2021/12/27 02:25:37;;;;;;;30.57;12.30;;;8.10;99.90;;;;;;5049770;28;20196;-57
2021/12/27 02:28:07;;;;;;;33.67;13.77;;;8.10;99.90;;;;;;5052464;28;20264;-57
2021/12/27 02:30:34;;;;;;;32.00;13.23;;;8.10;99.90;;;;;;5035987;28;20166;-57
2021/12/27 02:33:05;;;;;;;32.07;12.73;;;8.10;99.90;;;;;;5053572;28;20193;-57
2021/12/27 02:35:42;;;;;;;30.20;12.50;;;8.10;99.90;;;;;;5052752;28;20239;-57
2021/12/27 02:38:12;;;;;;;30.90;12.07;;;8.10;99.90;;;;;;5052872;28;20264;-58
2021/12/27 02:40:39;;;;;;;29.50;10.97;;;8.10;99.90;;;;;;5053343;28;20254;-57
2021/12/27 02:43:19;;;;;;;33.00;12.00;;;8.10;99.90;;;;;;5053146;28;20173;-57
2021/12/27 02:45:51;;;;;;;33.00;13.00;;;8.10;99.90;;;;;;5051927;28;20259;-57
2021/12/27 02:48:24;;;;;;;30.17;12.23;;;8.40;99.90;;;;;;5052548;28;20180;-57
2021/12/27 02:50:51;;;;;;;34.13;12.40;;;8.10;99.90;;;;;;5053103;28;20177;-57
2021/12/27 02:53:17;;;;;;;31.37;12.03;;;8.10;99.90;;;;;;5052621;28;20670;-57
2021/12/27 02:55:44;;;;;;;31.90;12.23;;;8.10;99.90;;;;;;5052900;28;20239;-57
2021/12/27 02:58:10;;;;;;;32.00;12.30;;;8.10;99.90;;;;;;5052892;28;20698;-57
2021/12/27 03:00:53;;;;;;;31.90;12.27;;;8.20;99.90;;;;;;5052356;28;20189;-57
2021/12/27 03:03:19;;;;;;;34.13;12.03;;;8.10;99.90;;;;;;5052524;28;20173;-57
2021/12/27 03:05:45;;;;;;;23.67;11.77;;;10.30;99.90;;;;;;5052653;28;20203;-58
2021/12/27 03:08:14;;;;;;;32.80;11.87;;;8.10;99.90;;;;;;5052847;28;20204;-58
2021/12/27 03:10:42;;;;;;;33.33;11.97;;;8.20;99.90;;;;;;5052360;28;20176;-58
2021/12/27 03:13:16;;;;;;;38.23;11.23;;;8.10;99.90;;;;;;5053001;28;20177;-58
2021/12/27 03:15:42;;;;;;;28.77;11.00;;;8.20;99.90;;;;;;5052496;28;20188;-58
2021/12/27 03:18:08;;;;;;;27.00;11.87;;;8.20;99.90;;;;;;5052335;28;20631;-57
2021/12/27 03:20:34;;;;;;;27.93;12.20;;;8.10;99.90;;;;;;5050794;28;20324;-58
2021/12/27 03:23:00;;;;;;;28.63;12.40;;;8.10;99.90;;;;;;5052067;28;20226;-58
2021/12/27 03:25:26;;;;;;;30.77;12.50;;;8.20;99.90;;;;;;5052417;28;20661;-57
2021/12/27 03:27:52;;;;;;;30.60;12.47;;;8.20;99.90;;;;;;5052517;28;20654;-57
2021/12/27 03:30:26;;;;;;;43.27;13.30;;;8.20;99.90;;;;;;5052117;28;20221;-57
2021/12/27 03:32:53;;;;;;;33.07;12.50;;;8.20;99.90;;;;;;5051764;28;20223;-57
2021/12/27 03:35:26;;;;;;;29.07;11.13;;;8.30;99.90;;;;;;5052208;28;20173;-57
2021/12/27 03:37:56;;;;;;;31.27;11.07;;;8.20;99.90;;;;;;5051771;28;20214;-57
2021/12/27 03:40:23;;;;;;;22.77;11.20;;;8.30;99.90;;;;;;5052143;28;20240;-57
2021/12/27 03:42:50;;;;;;;30.07;11.07;;;8.30;99.90;;;;;;5052571;28;20177;-57
2021/12/27 03:45:18;;;;;;;30.37;11.87;;;8.10;99.90;;;;;;5051609;28;20203;-57
2021/12/27 03:47:45;;;;;;;35.03;11.70;;;8.40;99.90;;;;;;5036200;28;20180;-57
2021/12/27 03:50:11;;;;;;;27.00;11.33;;;8.20;99.90;;;;;;5051814;28;20538;-57
2021/12/27 03:52:37;;;;;;;26.63;12.03;;;8.30;99.90;;;;;;5051965;28;20213;-57
2021/12/27 03:55:04;;;;;;;35.90;12.13;;;8.20;99.90;;;;;;5052158;28;20184;-57
2021/12/27 03:57:32;;;;;;;34.17;11.93;;;8.30;99.90;;;;;;5051592;28;20181;-57
2021/12/27 04:02:42;;;;;;;34.43;11.97;;;8.40;99.90;;;;;;5043321;28;20260;-57
2021/12/27 04:05:09;;;;;;;28.00;11.37;;;8.70;99.90;;;;;;5051942;28;20227;-58
2021/12/27 04:07:39;;;;;;;30.07;11.73;;;8.30;99.90;;;;;;5051834;28;20169;-58
2021/12/27 04:10:07;;;;;;;34.47;11.77;;;8.30;99.90;;;;;;5051677;28;20227;-61
2021/12/27 04:12:33;;;;;;;29.10;12.10;;;8.30;99.90;;;;;;5051630;28;20677;-58
2021/12/27 04:14:59;;;;;;;33.70;12.70;;;8.30;99.90;;;;;;5051536;28;20177;-58
2021/12/27 04:17:25;;;;;;;36.10;12.73;;;8.30;99.90;;;;;;5051272;28;20259;-58
2021/12/27 04:19:51;;;;;;;29.63;11.40;;;8.30;99.90;;;;;;5051043;28;20184;-58
2021/12/27 04:22:16;;;;;;;26.93;11.43;;;8.30;99.90;;;;;;5051484;28;20587;-58
2021/12/27 04:24:42;;;;;;;21.67;10.37;;;8.30;99.90;;;;;;5051169;28;20177;-58
2021/12/27 04:27:08;;;;;;;30.20;11.30;;;8.40;99.90;;;;;;5051289;28;20252;-58
2021/12/27 04:29:34;;;;;;;30.80;11.23;;;8.40;99.90;;;;;;5051117;28;20238;-58
2021/12/27 04:32:00;;;;;;;27.83;10.83;;;8.30;99.90;;;;;;5051033;28;20540;-58
2021/12/27 04:34:26;;;;;;;32.70;10.77;;;8.40;99.90;;;;;;5051449;28;20169;-58
2021/12/27 04:36:51;;;;;;;26.13;10.70;;;8.30;99.90;;;;;;5051102;28;20258;-58
2021/12/27 04:39:17;;;;;;;32.17;11.03;;;8.50;99.90;;;;;;5050986;28;20180;-58
2021/12/27 04:41:44;;;;;;;29.80;10.83;;;8.30;99.90;;;;;;5051027;28;20227;-58
2021/12/27 04:44:10;;;;;;;24.03;10.30;;;8.40;99.90;;;;;;5050907;28;20204;-58
2021/12/27 04:46:35;;;;;;;29.03;10.20;;;8.50;99.90;;;;;;5050533;28;20596;-58
2021/12/27 04:49:01;;;;;;;28.73;10.67;;;8.50;99.90;;;;;;5049529;28;20185;-58
2021/12/27 04:51:27;;;;;;;30.10;10.33;;;8.50;99.90;;;;;;5050492;28;20640;-58
2021/12/27 04:53:54;;;;;;;26.80;9.87;;;8.50;99.90;;;;;;5050852;28;20174;-58
2021/12/27 04:56:20;;;;;;;23.80;10.20;;;8.50;99.90;;;;;;5050611;28;20245;-58
2021/12/27 04:58:46;;;;;;;31.70;10.20;;;8.50;99.90;;;;;;5050975;28;20165;-58
2021/12/27 05:01:13;;;;;;;27.67;9.63;;;8.50;99.90;;;;;;5048349;28;20177;-58
2021/12/27 05:03:39;;;;;;;22.03;9.43;;;8.60;99.90;;;;;;5050562;28;20517;-58
2021/12/27 05:06:07;;;;;;;22.13;9.00;;;8.20;99.90;;;;;;5050517;28;20169;-58
2021/12/27 05:08:33;;;;;;;22.70;9.10;;;8.60;99.90;;;;;;5050483;28;20542;-58
2021/12/27 05:10:59;;;;;;;24.70;8.40;;;8.60;99.90;;;;;;5050466;28;20200;-58
2021/12/27 05:13:25;;;;;;;22.73;8.73;;;8.60;99.90;;;;;;5050805;28;20186;-58
2021/12/27 05:15:50;;;;;;;29.23;8.73;;;8.60;99.90;;;;;;5050081;28;20552;-58
2021/12/27 05:18:17;;;;;;;23.67;8.57;;;8.70;99.90;;;;;;5050059;28;20508;-58
2021/12/27 05:20:43;;;;;;;21.47;8.23;;;8.70;99.90;;;;;;5050163;28;20182;-58
2021/12/27 05:23:09;;;;;;;18.20;7.57;;;8.80;99.90;;;;;;5050441;28;20185;-58
2021/12/27 05:25:34;;;;;;;23.07;7.73;;;8.80;99.90;;;;;;5050464;28;20541;-57
2021/12/27 05:28:00;;;;;;;22.07;8.60;;;8.90;99.90;;;;;;5050097;28;20185;-57
2021/12/27 05:30:26;;;;;;;20.03;8.53;;;8.80;99.90;;;;;;5050210;28;20303;-57
2021/12/27 05:32:52;;;;;;;18.63;7.83;;;8.80;99.90;;;;;;5050163;28;20217;-57
2021/12/27 05:35:18;;;;;;;24.57;8.00;;;8.80;99.90;;;;;;5049949;28;20301;-57
2021/12/27 05:37:45;;;;;;;24.73;8.57;;;8.80;99.90;;;;;;5050259;28;20173;-57
2021/12/27 05:40:17;;;;;;;25.03;9.73;;;8.90;99.90;;;;;;5049958;28;20169;-57
2021/12/27 05:42:42;;;;;;;25.67;8.97;;;8.90;99.90;;;;;;5050072;28;20177;-57
2021/12/27 05:45:09;;;;;;;25.63;9.43;;;8.90;99.90;;;;;;5050244;28;20552;-58
2021/12/27 05:47:35;;;;;;;21.47;9.20;;;8.50;99.90;;;;;;5050005;28;20192;-57
2021/12/27 05:50:01;;;;;;;18.77;9.27;;;8.90;99.90;;;;;;5050083;28;20247;-57
2021/12/27 05:52:27;;;;;;;28.80;10.63;;;8.90;99.90;;;;;;5049904;28;20303;-58
2021/12/27 05:54:53;;;;;;;21.93;10.03;;;8.90;99.90;;;;;;5049651;28;20266;-57
2021/12/27 05:57:19;;;;;;;29.03;10.90;;;8.90;99.90;;;;;;5049859;28;20633;-56
2021/12/27 05:59:45;;;;;;;27.17;11.60;;;8.90;99.90;;;;;;5049402;28;20174;-57
2021/12/27 06:02:11;;;;;;;25.57;11.37;;;8.90;99.90;;;;;;5053442;28;20272;-56
2021/12/27 06:04:37;;;;;;;31.20;11.87;;;8.90;99.90;;;;;;5053732;28;20251;-56
2021/12/27 06:07:03;;;;;;;25.73;11.97;;;9.00;99.90;;;;;;5053718;28;20177;-56
2021/12/27 06:09:29;;;;;;;32.77;12.53;;;8.90;99.90;;;;;;5054133;28;20162;-56
2021/12/27 06:11:55;;;;;;;27.53;12.40;;;8.90;99.90;;;;;;5053417;28;20224;-56
2021/12/27 06:14:20;;;;;;;39.90;12.93;;;8.90;99.90;;;;;;5053800;28;20173;-57
2021/12/27 06:16:46;;;;;;;29.70;12.93;;;8.90;99.90;;;;;;5053649;28;20510;-56
2021/12/27 06:19:12;;;;;;;32.57;12.80;;;8.90;99.90;;;;;;5053552;28;20260;-56
2021/12/27 06:21:38;;;;;;;32.57;13.77;;;9.00;99.90;;;;;;5053194;28;20595;-56
2021/12/27 06:24:04;;;;;;;28.30;13.23;;;9.20;99.90;;;;;;5053554;28;20193;-56
2021/12/27 06:26:30;;;;;;;29.50;12.17;;;9.00;99.90;;;;;;5053457;28;20255;-56
2021/12/27 06:28:56;;;;;;;36.20;12.97;;;9.00;99.90;;;;;;5053298;28;20307;-56
2021/12/27 06:31:22;;;;;;;27.20;12.97;;;9.00;99.90;;;;;;5053313;28;20730;-56
2021/12/27 06:33:48;;;;;;;32.40;12.73;;;9.10;99.90;;;;;;5053396;28;20181;-56
2021/12/27 06:36:15;;;;;;;22.07;11.73;;;9.10;99.90;;;;;;5053417;28;20632;-56
2021/12/27 06:38:40;;;;;;;28.17;11.87;;;9.10;99.90;;;;;;5053305;28;20288;-56
2021/12/27 06:41:06;;;;;;;23.87;12.23;;;9.10;99.90;;;;;;5053254;28;20687;-60
2021/12/27 06:43:32;;;;;;;28.00;13.07;;;9.10;99.90;;;;;;5053244;28;20177;-57
2021/12/27 06:45:59;;;;;;;28.27;12.07;;;9.10;99.90;;;;;;5050039;28;20543;-58
2021/12/27 06:48:25;;;;;;;23.53;12.03;;;9.20;99.90;;;;;;5052819;28;20709;-58
2021/12/27 06:50:51;;;;;;;27.17;11.77;;;9.20;99.90;;;;;;5052837;28;20170;-58
2021/12/27 06:53:17;;;;;;;30.00;12.53;;;9.20;99.90;;;;;;5052704;28;20180;-58
2021/12/27 06:55:45;;;;;;;28.33;12.50;;;9.20;99.90;;;;;;5052722;28;20174;-58
2021/12/27 06:58:12;;;;;;;28.60;11.90;;;9.20;99.90;;;;;;5052858;28;20183;-58
2021/12/27 07:00:38;;;;;;;29.23;12.53;;;9.20;99.90;;;;;;5052741;28;20170;-58
2021/12/27 07:03:04;;;;;;;25.47;12.50;;;9.40;99.90;;;;;;5052793;28;20177;-58
2021/12/27 07:05:30;;;;;;;23.70;12.30;;;9.30;99.90;;;;;;5052629;28;20665;-58
2021/12/27 07:07:56;;;;;;;26.20;12.00;;;9.30;99.90;;;;;;5052677;28;20169;-58
2021/12/27 07:10:22;;;;;;;27.33;11.70;;;9.30;99.90;;;;;;5052634;28;20185;-58
2021/12/27 07:12:49;;;;;;;25.40;12.07;;;9.30;99.90;;;;;;5052126;28;20577;-58
2021/12/27 07:15:15;;;;;;;23.90;11.80;;;9.20;99.90;;;;;;5052926;28;20169;-58
2021/12/27 07:17:41;;;;;;;30.70;13.73;;;9.30;99.90;;;;;;5052497;28;20178;-58
2021/12/27 07:20:08;;;;;;;28.67;12.20;;;9.40;99.90;;;;;;5052589;28;20189;-58
2021/12/27 07:22:35;;;;;;;32.23;13.53;;;9.30;99.90;;;;;;5052660;28;20640;-58
2021/12/27 07:25:01;;;;;;;26.23;13.40;;;9.40;99.90;;;;;;5052019;28;20272;-58
2021/12/27 07:27:27;;;;;;;24.40;12.53;;;9.40;99.90;;;;;;5051980;28;20173;-58
2021/12/27 07:29:53;;;;;;;28.00;12.83;;;9.40;99.90;;;;;;5052129;28;20232;-58
2021/12/27 07:32:19;;;;;;;33.07;13.43;;;9.40;99.90;;;;;;5052279;28;20243;-58
2021/12/27 07:34:45;;;;;;;25.70;14.50;;;9.40;99.90;;;;;;5052511;28;20204;-58
2021/12/27 07:37:11;;;;;;;28.63;14.40;;;9.50;99.90;;;;;;5052243;28;20180;-58
2021/12/27 07:39:37;;;;;;;26.43;13.70;;;9.40;99.90;;;;;;5052091;28;20181;-58
2021/12/27 07:42:04;;;;;;;25.07;14.43;;;9.40;99.90;;;;;;5051821;28;20540;-58
2021/12/27 07:44:30;;;;;;;30.77;13.53;;;9.40;99.90;;;;;;5052523;28;20633;-58
2021/12/27 07:46:56;;;;;;;29.43;14.77;;;9.40;99.90;;;;;;5051630;28;20264;-58
2021/12/27 07:49:22;;;;;;;33.90;16.20;;;9.50;99.90;;;;;;5051969;28;20181;-58
2021/12/27 07:51:48;;;;;;;23.17;14.60;;;9.50;99.90;;;;;;5051497;28;20331;-58
2021/12/27 07:54:14;;;;;;;27.17;14.77;;;9.50;99.90;;;;;;5051768;28;20230;-58
2021/12/27 07:56:40;;;;;;;29.00;15.03;;;9.50;99.90;;;;;;5051359;28;20213;-56
2021/12/27 07:59:06;;;;;;;28.43;14.00;;;9.50;99.90;;;;;;5045089;28;20725;-56
2021/12/27 08:01:36;;;;;;;27.07;14.47;;;9.50;99.90;;;;;;5050898;28;20216;-57
2021/12/27 08:04:05;;;;;;;30.60;15.00;;;9.50;99.90;;;;;;5051667;28;20189;-56
2021/12/27 08:06:31;;;;;;;28.60;15.13;;;9.50;99.90;;;;;;5051421;28;20644;-56
2021/12/27 08:08:58;;;;;;;32.93;15.20;;;9.50;99.90;;;;;;5051598;28;20181;-56
2021/12/27 08:11:25;;;;;;;28.20;15.87;;;9.50;99.90;;;;;;5050284;28;20255;-60
2021/12/27 08:13:51;;;;;;;27.77;15.07;;;9.50;99.90;;;;;;5051069;28;20205;-61
2021/12/27 08:16:17;;;;;;;28.23;14.87;;;9.50;99.90;;;;;;5051407;28;20196;-61
2021/12/27 08:18:46;;;;;;;25.57;13.50;;;9.50;99.90;;;;;;5051617;28;20177;-61
2021/12/27 08:21:13;;;;;;;68.33;16.70;;;9.50;99.90;;;;;;5051458;28;20173;-60
2021/12/27 08:23:39;;;;;;;29.43;14.27;;;9.50;99.90;;;;;;5051140;28;20700;-60
2021/12/27 08:26:05;;;;;;;23.83;13.03;;;9.40;99.90;;;;;;5049667;28;20181;-56
2021/12/27 08:28:31;;;;;;;21.00;12.80;;;9.50;99.90;;;;;;5051242;28;20561;-56
2021/12/27 08:30:57;;;;;;;23.47;12.47;;;9.50;99.90;;;;;;5051319;28;20240;-56
2021/12/27 08:33:23;;;;;;;23.20;12.60;;;9.50;99.90;;;;;;5050742;28;20193;-56
2021/12/27 08:35:49;;;;;;;22.67;12.43;;;9.50;99.90;;;;;;5051197;28;20514;-56
2021/12/27 08:38:16;;;;;;;19.67;10.80;;;9.60;99.90;;;;;;5051419;28;20254;-56
2021/12/27 08:40:42;;;;;;;20.33;12.33;;;9.50;99.90;;;;;;5050847;28;20275;-56
2021/12/27 08:43:08;;;;;;;18.30;11.30;;;9.60;99.90;;;;;;5051340;28;20173;-56
2021/12/27 08:45:34;;;;;;;18.33;11.63;;;9.50;99.90;;;;;;5051341;28;20181;-58
2021/12/27 08:48:00;;;;;;;22.57;11.03;;;9.60;99.90;;;;;;5051059;28;20677;-57
2021/12/27 08:50:26;;;;;;;17.70;10.33;;;9.60;99.90;;;;;;5050951;28;20252;-56
2021/12/27 08:52:52;;;;;;;21.67;10.70;;;9.60;99.90;;;;;;5050608;28;20304;-56
2021/12/27 08:55:18;;;;;;;17.90;10.37;;;9.60;99.90;;;;;;5050354;28;20234;-56
2021/12/27 08:57:44;;;;;;;20.40;9.93;;;9.60;99.90;;;;;;5050287;28;20177;-56
2021/12/27 09:00:14;;;;;;;19.10;9.93;;;9.60;99.90;;;;;;5050965;28;20705;-56
2021/12/27 09:02:40;;;;;;;14.03;8.70;;;9.60;99.90;;;;;;5050832;28;20177;-56
2021/12/27 09:05:07;;;;;;;18.63;9.10;;;9.50;99.90;;;;;;5049298;28;20173;-56
2021/12/27 09:07:33;;;;;;;17.20;9.77;;;9.60;99.90;;;;;;5050515;28;20184;-56
2021/12/27 09:09:59;;;;;;;17.52;11.68;;;;;;;;;;5049262;28;20414;-57
2021/12/27 09:12:25;;;;;;;15.10;9.53;;;9.80;99.90;;;;;;5047867;28;20262;-57
2021/12/27 09:14:51;;;;;;;17.23;9.83;;;9.70;99.90;;;;;;5050046;28;20665;-57
2021/12/27 09:17:18;;;;;;;15.70;9.60;;;9.70;99.90;;;;;;5051152;28;20173;-57
2021/12/27 09:19:44;;;;;;;19.70;10.93;;;9.70;99.90;;;;;;5044050;28;20169;-58
2021/12/27 09:22:13;;;;;;;21.17;9.87;;;9.70;99.90;;;;;;5042244;28;20570;-58
2021/12/27 09:24:39;;;;;;;14.27;9.50;;;9.70;99.90;;;;;;5050789;28;20177;-57
2021/12/27 09:27:05;;;;;;;13.77;9.10;;;9.80;99.90;;;;;;5042826;28;20193;-57
2021/12/27 09:29:31;;;;;;;14.90;9.43;;;9.80;99.90;;;;;;5041407;28;20677;-57
2021/12/27 09:31:57;;;;;;;13.67;8.93;;;9.80;99.90;;;;;;5041368;28;20210;-58
2021/12/27 09:34:23;;;;;;;13.40;8.40;;;9.80;99.90;;;;;;5041400;28;20315;-58
2021/12/27 09:36:49;;;;;;;10.33;7.83;;;9.90;99.90;;;;;;5045670;28;20173;-61
2021/12/27 09:39:15;;;;;;;13.10;7.33;;;9.90;99.90;;;;;;5047286;28;20177;-61
2021/12/27 09:41:41;;;;;;;11.53;7.27;;;9.90;99.90;;;;;;5047531;28;20171;-61
2021/12/27 09:44:07;;;;;;;11.13;6.70;;;10.00;99.90;;;;;;5047447;28;20181;-61
2021/12/27 09:46:33;;;;;;;9.43;5.90;;;10.00;99.90;;;;;;5049847;28;20176;-60
2021/12/27 09:49:04;;;;;;;9.37;5.90;;;10.00;99.90;;;;;;5052276;28;20166;-60
2021/12/27 09:51:30;;;;;;;11.90;5.80;;;10.10;99.90;;;;;;5056682;28;20307;-60
2021/12/27 09:53:56;;;;;;;8.30;5.60;;;10.10;99.90;;;;;;5056865;28;20220;-60
2021/12/27 09:56:22;;;;;;;7.40;4.67;;;;;;;;;;5056999;28;20169;-56
2021/12/27 09:58:49;;;;;;;6.47;4.43;;;;;;;;;;5056871;28;20276;-60
2021/12/27 10:01:14;;;;;;;8.40;3.57;;;10.20;99.90;;;;;;5056845;28;20216;-60
2021/12/27 10:03:49;;;;;;;6.97;3.83;;;10.20;99.90;;;;;;5056135;28;20192;-61
2021/12/27 10:06:15;;;;;;;22.97;10.83;;;10.20;99.90;;;;;;5036930;28;20571;-57
2021/12/27 10:08:50;;;;;;;306.20;136.40;;;10.30;99.90;;;;;;5037115;28;20182;-60
2021/12/27 10:11:29;;;;;;;183.03;82.60;;;10.40;99.90;;;;;;5049448;28;20200;-60
2021/12/27 10:14:03;;;;;;;6.37;2.80;;;10.40;99.90;;;;;;5056957;28;20209;-60
2021/12/27 10:16:30;;;;;;;6.47;1.60;;;10.40;99.90;;;;;;5056822;28;20260;-60
2021/12/27 10:19:02;;;;;;;4.87;1.53;;;10.40;99.90;;;;;;5046172;28;20285;-60
2021/12/27 10:21:28;;;;;;;3.97;0.90;;;10.50;99.90;;;;;;5036793;28;20173;-60
2021/12/27 10:24:21;;;;;;;3.50;0.90;;;10.50;99.90;;;;;;5036734;28;20166;-60
2021/12/27 10:26:49;;;;;;;2.57;0.70;;;10.50;99.90;;;;;;5042572;28;20256;-60
2021/12/27 10:29:25;;;;;;;2.00;0.77;;;10.40;99.90;;;;;;5054652;28;20216;-60
2021/12/27 10:32:04;;;;;;;2.60;0.70;;;10.50;99.90;;;;;;5055780;28;20322;-60
2021/12/27 10:34:51;;;;;;;4.17;1.00;;;10.50;99.90;;;;;;5056469;28;20168;-61
2021/12/27 10:37:28;;;;;;;5.50;1.27;;;10.50;99.90;;;;;;5055468;28;20181;-60
2021/12/27 10:40:05;;;;;;;3.43;0.60;;;10.50;99.90;;;;;;5055792;28;20181;-60
2021/12/27 10:42:35;;;;;;;1.97;0.80;;;10.50;99.90;;;;;;5056206;28;20169;-60
2021/12/27 10:45:11;;;;;;;2.63;0.50;;;10.50;99.90;;;;;;5056233;28;20188;-60
2021/12/27 10:47:52;;;;;;;3.53;0.80;;;10.50;99.90;;;;;;5051899;28;20189;-61
2021/12/27 10:50:23;;;;;;;2.57;0.63;;;10.50;99.90;;;;;;5052654;28;20200;-60
2021/12/27 10:53:14;;;;;;;5.13;0.93;;;10.50;99.90;;;;;;5052570;28;20313;-61
2021/12/27 10:55:43;;;;;;;3.43;0.70;;;10.50;99.90;;;;;;5053040;28;20199;-60
2021/12/27 10:58:19;;;;;;;3.77;0.50;;;10.40;99.90;;;;;;5053445;28;20264;-60
2021/12/27 11:00:48;;;;;;;2.60;0.80;;;10.40;99.90;;;;;;5053502;28;20276;-60
2021/12/27 11:03:34;;;;;;;4.47;0.60;;;10.40;99.90;;;;;;5053106;28;20685;-60
2021/12/27 11:06:04;;;;;;;1.17;0.47;;;10.40;99.90;;;;;;5050085;28;20395;-60
2021/12/27 11:08:31;;;;;;;1.27;0.40;;;10.30;99.90;;;;;;5051481;28;20180;-60
2021/12/27 11:10:57;;;;;;;0.80;0.40;;;10.30;99.90;;;;;;5051263;28;20504;-60
2021/12/27 11:13:24;;;;;;;1.63;0.93;;;10.30;99.90;;;;;;5051283;28;20181;-60
2021/12/27 11:15:50;;;;;;;2.73;0.90;;;10.20;99.90;;;;;;5050055;28;20185;-61
2021/12/27 11:18:16;;;;;;;2.13;0.73;;;10.30;99.90;;;;;;5050934;28;20193;-60
2021/12/27 11:20:46;;;;;;;3.23;0.70;;;10.20;99.90;;;;;;5052349;28;20215;-60
2021/12/27 11:23:14;;;;;;;5.20;0.80;;;10.20;99.90;;;;;;5052740;28;20312;-60
2021/12/27 11:25:42;;;;;;;1.33;0.70;;;10.20;99.90;;;;;;5051415;28;20252;-60
2021/12/27 11:28:30;;;;;;;1.23;0.70;;;10.20;99.90;;;;;;5052294;28;20185;-60
2021/12/27 11:30:58;;;;;;;2.50;0.77;;;10.20;99.90;;;;;;5012672;28;20233;-60
2021/12/27 11:33:25;;;;;;;1.43;0.67;;;10.30;99.90;;;;;;5012699;28;20262;-60
2021/12/27 11:35:59;;;;;;;4.30;0.90;;;10.30;99.90;;;;;;5012596;28;20175;-60
2021/12/27 11:38:31;;;;;;;2.27;0.77;;;10.30;99.90;;;;;;5012634;28;20264;-61
2021/12/27 11:40:57;;;;;;;2.53;0.90;;;10.30;99.90;;;;;;5012654;28;20261;-60
2021/12/27 11:43:23;;;;;;;1.87;0.90;;;10.30;99.90;;;;;;5012650;28;20709;-61
2021/12/27 11:45:54;;;;;;;4.40;1.00;;;10.30;99.90;;;;;;5011428;28;20266;-61
2021/12/27 11:48:22;;;;;;;1.23;0.73;;;10.30;99.90;;;;;;5012395;28;20175;-60
2021/12/27 11:50:56;;;;;;;2.27;1.10;;;10.30;99.90;;;;;;5012561;28;20650;-60
2021/12/27 11:53:35;;;;;;;5.03;1.60;;;10.30;99.90;;;;;;5012466;28;20194;-61
2021/12/27 11:56:08;;;;;;;1.40;1.13;;;10.30;99.90;;;;;;5012389;28;20565;-60
2021/12/27 11:58:44;;;;;;;3.73;1.90;;;10.40;99.90;;;;;;5012159;28;20634;-61
2021/12/27 12:01:21;;;;;;;3.20;2.00;;;10.40;99.90;;;;;;5012485;28;20178;-61
2021/12/27 12:03:49;;;;;;;5.93;2.30;;;10.40;99.90;;;;;;5012241;28;20174;-61
2021/12/27 12:06:38;;;;;;;7.07;2.63;;;10.40;99.90;;;;;;5012196;28;20174;-60
2021/12/27 12:09:19;;;;;;;3.00;2.10;;;10.50;99.90;;;;;;5012143;28;20171;-60
2021/12/27 12:11:58;;;;;;;6.53;3.03;;;10.50;99.90;;;;;;4992921;28;20236;-60
2021/12/27 12:14:35;;;;;;;6.13;2.77;;;10.50;99.90;;;;;;5009070;28;20226;-60
2021/12/27 12:17:05;;;;;;;36.47;13.63;;;10.60;99.90;;;;;;5011929;28;20174;-60
2021/12/27 12:19:44;;;;;;;11.77;3.60;;;10.70;99.90;;;;;;5012304;28;20277;-61
2021/12/27 12:22:38;;;;;;;6.97;2.00;;;11.10;99.90;;;;;;5012044;28;20202;-61
2021/12/27 12:25:15;;;;;;;5.60;1.50;;;10.80;99.90;;;;;;5011897;28;20175;-61
2021/12/27 12:28:01;;;;;;;3.67;1.10;;;10.90;99.90;;;;;;5011947;28;20186;-60
2021/12/27 12:30:32;;;;;;;9.20;1.33;;;11.00;99.90;;;;;;5046577;28;20594;-61
2021/12/27 12:33:00;;;;;;;8.80;1.30;;;11.20;99.90;;;;;;5049447;28;20362;-61
2021/12/27 12:35:46;;;;;;;11.47;1.97;;;11.30;99.90;;;;;;5050820;28;20204;-61
2021/12/27 12:38:26;;;;;;;7.37;1.30;;;11.50;99.90;;;;;;5048986;28;20549;-61
2021/12/27 12:41:12;;;;;;;16.47;2.47;;;11.70;99.90;;;;;;5051035;28;20650;-62
2021/12/27 12:43:40;;;;;;;11.77;2.63;;;11.90;99.90;;;;;;5051270;28;20674;-61
2021/12/27 12:46:11;;;;;;;11.70;1.90;;;12.30;99.90;;;;;;5049963;28;20173;-61
2021/12/27 12:48:37;;;;;;;14.83;2.63;;;12.40;99.90;;;;;;5047619;28;20178;-61